Time;durP1;ratioP1;P1;durP2;ratioP2;P2;SDS_P1;SDS_P2;PMS_P1;PMS_P2;Temp;Humidity;BMP_temperature;BMP_pressure;BME280_temperature;BME280_humidity;BME280_pressure;Samples;Min_cycle;Max_cycle;Signal;HPM_P1;HPM_P2
2022/03/20 00:03:10;;;;;;;13.68;9.75;;;19.80;57.70;;;;;;7903959;28;20191;-48
2022/03/20 00:06:55;;;;;;;16.92;10.23;;;19.70;57.80;;;;;;7903864;28;20169;-51
2022/03/20 00:10:46;;;;;;;17.85;10.35;;;19.70;57.80;;;;;;7903704;28;20183;-48
2022/03/20 00:14:32;;;;;;;17.27;10.13;;;19.70;57.60;;;;;;7903975;28;20200;-51
2022/03/20 00:18:23;;;;;;;16.20;10.80;;;19.60;57.70;;;;;;7903868;28;20208;-48
2022/03/20 00:22:11;;;;;;;15.43;10.23;;;19.70;57.80;;;;;;7903135;28;20197;-49
2022/03/20 00:25:57;;;;;;;16.98;9.80;;;19.70;57.70;;;;;;7903315;28;20164;-51
2022/03/20 00:29:43;;;;;;;15.32;9.68;;;19.60;57.70;;;;;;7902781;28;20721;-49
2022/03/20 00:33:28;;;;;;;16.80;10.23;;;19.60;57.70;;;;;;7902571;28;20196;-49
2022/03/20 00:37:14;;;;;;;18.83;9.90;;;19.60;57.80;;;;;;7902789;28;20211;-48
2022/03/20 00:40:59;;;;;;;15.88;9.65;;;19.60;57.80;;;;;;7902586;28;20218;-50
2022/03/20 00:44:45;;;;;;;17.30;9.82;;;19.60;57.80;;;;;;7902746;28;20228;-49
2022/03/20 00:48:31;;;;;;;15.70;10.45;;;19.60;58.60;;;;;;7902312;28;20729;-51
2022/03/20 00:52:16;;;;;;;14.20;9.73;;;19.60;58.00;;;;;;7902157;28;20193;-50
2022/03/20 00:56:02;;;;;;;15.68;9.77;;;19.60;58.00;;;;;;7902060;28;20204;-49
2022/03/20 00:59:47;;;;;;;14.25;10.13;;;19.60;57.90;;;;;;7901929;28;20202;-49
2022/03/20 01:03:32;;;;;;;14.95;9.82;;;19.60;57.90;;;;;;7901970;28;20222;-49
2022/03/20 01:07:18;;;;;;;16.00;10.07;;;19.60;58.10;;;;;;7902058;28;20175;-48
2022/03/20 01:11:05;;;;;;;14.27;9.90;;;19.50;58.10;;;;;;7901614;28;20677;-51
2022/03/20 01:14:50;;;;;;;14.55;9.90;;;19.60;58.10;;;;;;7901725;28;20208;-49
2022/03/20 01:18:36;;;;;;;14.75;9.82;;;19.50;58.10;;;;;;7901559;28;20689;-51
2022/03/20 01:22:22;;;;;;;15.77;10.60;;;19.50;58.30;;;;;;7901341;28;20220;-53
2022/03/20 01:26:07;;;;;;;15.80;9.48;;;19.50;58.40;;;;;;7901488;28;20185;-51
2022/03/20 01:29:53;;;;;;;14.07;10.05;;;19.50;58.50;;;;;;7901182;28;20205;-49
2022/03/20 01:33:38;;;;;;;16.65;9.80;;;19.50;58.60;;;;;;7901423;28;20283;-49
2022/03/20 01:37:24;;;;;;;17.02;10.15;;;19.50;58.60;;;;;;7901385;28;20204;-51
2022/03/20 01:41:09;;;;;;;14.75;9.40;;;19.50;58.70;;;;;;7900889;28;20168;-48
2022/03/20 01:44:55;;;;;;;16.02;9.52;;;19.40;58.60;;;;;;7900996;28;20275;-48
2022/03/20 01:48:40;;;;;;;14.10;9.60;;;19.40;58.70;;;;;;7901133;28;20185;-49
2022/03/20 01:52:26;;;;;;;14.55;9.93;;;19.40;58.70;;;;;;7900636;28;20200;-48
2022/03/20 01:56:12;;;;;;;17.30;10.15;;;19.40;58.90;;;;;;7900229;28;20253;-48
2022/03/20 01:59:57;;;;;;;16.42;10.43;;;19.40;58.90;;;;;;7900439;28;20168;-49
2022/03/20 02:03:43;;;;;;;13.35;9.25;;;19.40;58.90;;;;;;7900581;28;20860;-49
2022/03/20 02:07:29;;;;;;;15.20;10.30;;;19.40;58.90;;;;;;7900542;28;20180;-48
2022/03/20 02:11:15;;;;;;;15.23;9.13;;;19.40;58.90;;;;;;7900252;28;20180;-51
2022/03/20 02:15:01;;;;;;;16.55;10.00;;;19.40;59.00;;;;;;7900376;28;20734;-48
2022/03/20 02:18:48;;;;;;;15.70;10.50;;;19.40;59.00;;;;;;7900372;28;20208;-48
2022/03/20 02:22:37;;;;;;;16.27;9.32;;;19.30;59.00;;;;;;7899909;28;20192;-52
2022/03/20 02:26:24;;;;;;;16.58;10.38;;;19.30;59.00;;;;;;7900347;28;20176;-48
2022/03/20 02:30:15;;;;;;;15.73;10.07;;;19.30;59.00;;;;;;7899930;28;20642;-50
2022/03/20 02:34:00;;;;;;;15.80;9.55;;;19.30;59.00;;;;;;7900099;28;20197;-48
2022/03/20 02:37:51;;;;;;;13.90;9.13;;;19.30;59.00;;;;;;7899994;28;20212;-49
2022/03/20 02:41:38;;;;;;;12.85;8.93;;;19.30;59.10;;;;;;7899841;28;20161;-48
2022/03/20 02:45:29;;;;;;;15.10;10.00;;;19.30;59.00;;;;;;7899928;28;20185;-51
2022/03/20 02:49:15;;;;;;;13.70;9.32;;;19.30;59.10;;;;;;7899718;28;20200;-48
2022/03/20 02:53:04;;;;;;;12.90;8.93;;;19.30;59.10;;;;;;7900044;28;20285;-48
2022/03/20 02:56:49;;;;;;;13.80;9.63;;;19.30;59.10;;;;;;7902264;28;20253;-51
2022/03/20 03:00:37;;;;;;;16.05;10.05;;;19.30;59.10;;;;;;7905527;28;20169;-48
2022/03/20 03:04:23;;;;;;;17.88;10.27;;;19.30;59.10;;;;;;7905675;28;20197;-52
2022/03/20 03:12:13;;;;;;;16.40;9.55;;;19.30;59.10;;;;;;7905663;28;20283;-48
2022/03/20 03:16:03;;;;;;;18.52;9.50;;;19.30;59.10;;;;;;7905358;28;20253;-53
2022/03/20 03:19:48;;;;;;;14.57;9.02;;;19.30;59.10;;;;;;7905515;28;20210;-54
2022/03/20 03:23:36;;;;;;;14.25;9.30;;;19.20;59.00;;;;;;7905641;28;20185;-48
2022/03/20 03:27:21;;;;;;;12.63;8.77;;;19.20;59.00;;;;;;7905801;28;20192;-49
2022/03/20 03:31:09;;;;;;;14.13;9.43;;;19.20;59.10;;;;;;7904919;28;20278;-52
2022/03/20 03:38:59;;;;;;;14.38;8.93;;;19.20;59.10;;;;;;7904760;28;20882;-48
2022/03/20 03:42:44;;;;;;;12.52;8.73;;;19.20;59.10;;;;;;7904279;28;20215;-48
2022/03/20 03:46:29;;;;;;;13.75;9.13;;;19.20;59.10;;;;;;7904438;28;20189;-52
2022/03/20 03:50:15;;;;;;;14.95;9.55;;;19.20;59.10;;;;;;7903974;28;20192;-48
2022/03/20 03:54:00;;;;;;;15.27;9.48;;;19.20;59.10;;;;;;7904081;28;20283;-48
2022/03/20 03:57:48;;;;;;;14.63;9.73;;;19.20;59.10;;;;;;7904005;28;20232;-51
2022/03/20 04:01:34;;;;;;;14.55;9.45;;;19.10;59.10;;;;;;7903759;28;20173;-52
2022/03/20 04:05:19;;;;;;;15.75;9.38;;;19.20;59.10;;;;;;7904291;28;20189;-50
2022/03/20 04:09:05;;;;;;;14.15;8.55;;;19.20;59.20;;;;;;7903087;28;20639;-51
2022/03/20 04:12:50;;;;;;;11.68;8.85;;;19.10;59.10;;;;;;7903516;28;20197;-49
2022/03/20 04:16:36;;;;;;;13.70;8.90;;;19.10;59.10;;;;;;7903557;28;20203;-49
2022/03/20 04:20:21;;;;;;;13.77;9.35;;;19.20;59.30;;;;;;7903161;28;20249;-50
2022/03/20 04:24:07;;;;;;;12.60;8.95;;;19.10;59.30;;;;;;7903247;28;20682;-50
2022/03/20 04:27:56;;;;;;;15.50;9.40;;;19.10;59.30;;;;;;7903474;28;20588;-52
2022/03/20 04:31:41;;;;;;;14.02;8.50;;;19.10;59.30;;;;;;7903062;28;20204;-53
2022/03/20 04:35:27;;;;;;;11.23;8.15;;;19.10;59.30;;;;;;7903159;28;20693;-49
2022/03/20 04:39:12;;;;;;;13.95;8.45;;;19.10;59.40;;;;;;7902566;28;20209;-50
2022/03/20 04:42:58;;;;;;;13.25;8.45;;;19.10;59.40;;;;;;7902649;28;20243;-52
2022/03/20 04:46:45;;;;;;;15.60;7.90;;;19.10;59.30;;;;;;7902817;28;20242;-52
2022/03/20 04:58:40;;;;;;;12.65;8.38;;;19.10;59.30;;;;;;7902829;28;20211;-52
2022/03/20 05:02:25;;;;;;;13.05;7.68;;;19.10;59.30;;;;;;7902486;28;20662;-50
2022/03/20 05:06:11;;;;;;;13.45;8.38;;;19.00;59.30;;;;;;7902275;28;20548;-52
2022/03/20 05:14:00;;;;;;;13.27;8.48;;;19.10;59.40;;;;;;7902107;28;20192;-52
2022/03/20 05:17:46;;;;;;;11.93;8.23;;;19.10;59.60;;;;;;7901995;28;20277;-50
2022/03/20 05:21:32;;;;;;;12.05;7.55;;;19.00;59.60;;;;;;7900567;28;20642;-51
2022/03/20 05:25:18;;;;;;;11.00;7.95;;;19.00;59.60;;;;;;7900373;28;20610;-51
2022/03/20 05:29:04;;;;;;;11.20;7.82;;;19.10;59.60;;;;;;7901168;28;20180;-54
2022/03/20 05:32:50;;;;;;;17.08;8.60;;;19.10;60.40;;;;;;7900747;28;20210;-54
2022/03/20 05:36:35;;;;;;;11.10;7.63;;;19.10;59.60;;;;;;7905248;28;20212;-50
2022/03/20 05:40:21;;;;;;;12.90;8.13;;;19.10;60.10;;;;;;7900990;28;20184;-52
2022/03/20 05:44:06;;;;;;;11.57;7.68;;;19.10;59.40;;;;;;7902956;28;20220;-51
2022/03/20 05:47:52;;;;;;;12.23;8.10;;;19.20;59.50;;;;;;7919681;28;20192;-51
2022/03/20 05:51:37;;;;;;;11.70;8.27;;;19.20;59.60;;;;;;7899927;28;20200;-49
2022/03/20 05:58:01;;;;;;;14.13;8.23;;;19.20;59.60;;;;;;7900800;28;20279;-49
2022/03/20 05:59:29;;;;;;;12.23;7.63;;;19.20;59.60;;;;;;7900497;28;20222;-50
2022/03/20 06:03:15;;;;;;;13.05;7.82;;;19.20;59.50;;;;;;7900697;28;20725;-51
2022/03/20 06:07:00;;;;;;;15.48;8.10;;;19.30;59.50;;;;;;7900926;28;20172;-50
2022/03/20 06:10:48;;;;;;;10.57;7.53;;;19.30;59.40;;;;;;7900283;28;20176;-52
2022/03/20 06:14:35;;;;;;;10.90;7.55;;;19.30;59.40;;;;;;7900520;28;20192;-51
2022/03/20 06:18:21;;;;;;;10.57;7.53;;;19.30;59.60;;;;;;7922007;28;20243;-50
2022/03/20 06:22:06;;;;;;;12.40;7.47;;;19.40;59.70;;;;;;7921311;28;20196;-51
2022/03/20 06:25:52;;;;;;;12.18;7.45;;;19.40;59.60;;;;;;7912810;28;20184;-51
2022/03/20 06:29:37;;;;;;;16.17;7.65;;;19.40;59.90;;;;;;7900254;28;20172;-49
2022/03/20 06:33:25;;;;;;;16.60;7.10;;;19.50;60.10;;;;;;7905477;28;20224;-50
2022/03/20 06:37:11;;;;;;;20.83;7.78;;;19.50;60.20;;;;;;7927086;28;20204;-49
2022/03/20 06:40:57;;;;;;;19.35;6.63;;;19.60;60.30;;;;;;7938035;28;20172;-51
2022/03/20 06:44:43;;;;;;;22.77;7.38;;;19.60;60.50;;;;;;7938057;28;20202;-52
2022/03/20 06:48:28;;;;;;;21.20;7.55;;;19.60;60.50;;;;;;7937829;28;20176;-50
2022/03/20 06:52:14;;;;;;;23.88;7.97;;;19.60;60.50;;;;;;7937512;28;20204;-52
2022/03/20 06:56:00;;;;;;;25.90;7.18;;;19.60;60.60;;;;;;7937553;28;20176;-51
2022/03/20 06:59:46;;;;;;;14.77;6.93;;;19.60;60.80;;;;;;7937435;28;20191;-53
2022/03/20 07:03:32;;;;;;;18.33;7.32;;;19.70;60.80;;;;;;7937162;28;20192;-50
2022/03/20 07:07:18;;;;;;;20.08;6.97;;;19.70;60.90;;;;;;7937431;28;20706;-52
2022/03/20 07:11:03;;;;;;;16.08;7.30;;;19.70;60.90;;;;;;7936967;28;20172;-51
2022/03/20 07:14:50;;;;;;;16.50;7.53;;;19.70;60.80;;;;;;7911243;28;20207;-51
2022/03/20 07:18:36;;;;;;;18.35;7.22;;;19.70;61.00;;;;;;7905523;28;20200;-52
2022/03/20 07:22:23;;;;;;;15.77;6.70;;;19.80;61.10;;;;;;7905387;28;20224;-50
2022/03/20 07:30:15;;;;;;;15.63;7.20;;;19.70;61.00;;;;;;7905327;28;20172;-51
2022/03/20 07:34:00;;;;;;;16.25;5.97;;;19.80;61.00;;;;;;7904802;28;20197;-49
2022/03/20 07:37:46;;;;;;;15.55;7.40;;;19.70;61.00;;;;;;7916853;28;20205;-52
2022/03/20 07:41:32;;;;;;;14.52;6.90;;;19.80;61.10;;;;;;7918761;28;20188;-50
2022/03/20 07:45:22;;;;;;;13.98;6.40;;;19.80;61.50;;;;;;7934304;27;20188;-51
2022/03/20 07:49:08;;;;;;;24.27;6.60;;;19.80;61.40;;;;;;7934824;28;20213;-51
2022/03/20 07:52:56;;;;;;;16.25;7.00;;;19.80;61.10;;;;;;7935217;28;20202;-50
2022/03/20 07:56:42;;;;;;;14.10;7.13;;;19.80;61.20;;;;;;7918553;28;20227;-49
2022/03/20 08:00:28;;;;;;;19.75;6.90;;;19.80;61.20;;;;;;7902791;28;20184;-50
2022/03/20 08:04:13;;;;;;;17.52;6.28;;;19.90;61.30;;;;;;7912897;28;20200;-51
2022/03/20 08:08:02;;;;;;;21.55;7.20;;;19.90;61.50;;;;;;7934186;28;20560;-51
2022/03/20 08:11:47;;;;;;;21.20;6.70;;;19.90;61.00;;;;;;7920858;28;20193;-51
2022/03/20 08:15:33;;;;;;;22.85;6.85;;;19.90;61.20;;;;;;7903255;28;20238;-51
2022/03/20 08:19:21;;;;;;;14.70;6.60;;;19.90;61.00;;;;;;7902808;28;20621;-52
2022/03/20 08:23:07;;;;;;;22.10;6.40;;;19.90;60.80;;;;;;7903432;28;20254;-50
2022/03/20 08:26:53;;;;;;;26.52;7.63;;;19.90;61.20;;;;;;7940053;27;20180;-51
2022/03/20 08:30:40;;;;;;;20.27;6.53;;;19.90;60.90;;;;;;7967081;27;20667;-49
2022/03/20 08:34:25;;;;;;;19.80;6.50;;;19.90;61.10;;;;;;7906061;28;20208;-51
2022/03/20 08:38:11;;;;;;;19.13;6.28;;;19.90;61.30;;;;;;7902612;28;20204;-52
2022/03/20 08:41:56;;;;;;;12.75;6.05;;;19.90;61.30;;;;;;7902800;28;20638;-51
2022/03/20 08:45:43;;;;;;;10.98;5.80;;;19.90;61.30;;;;;;7902999;28;20184;-52
2022/03/20 08:49:28;;;;;;;20.02;6.22;;;19.80;61.20;;;;;;7902782;28;20196;-50
2022/03/20 08:53:18;;;;;;;17.38;6.00;;;19.80;61.30;;;;;;7902466;28;20271;-51
2022/03/20 08:57:06;;;;;;;16.30;6.90;;;19.90;61.30;;;;;;7902227;28;20201;-50
2022/03/20 09:00:51;;;;;;;18.08;7.30;;;19.80;62.10;;;;;;7902239;28;20226;-49
2022/03/20 09:04:37;;;;;;;14.05;6.00;;;19.80;61.20;;;;;;7903022;28;20204;-52
2022/03/20 09:08:22;;;;;;;9.65;5.75;;;19.80;61.20;;;;;;7884093;28;20595;-51
2022/03/20 09:12:11;;;;;;;12.50;5.75;;;19.80;61.30;;;;;;7901676;28;20637;-52
2022/03/20 09:20:01;;;;;;;12.05;6.22;;;19.80;61.30;;;;;;7901998;28;20181;-53
2022/03/20 09:23:48;;;;;;;17.17;5.90;;;19.80;61.20;;;;;;7901948;28;20258;-50
2022/03/20 09:27:35;;;;;;;16.38;6.00;;;19.80;61.30;;;;;;7901846;28;20251;-54
2022/03/20 09:31:21;;;;;;;15.27;5.22;;;19.90;61.50;;;;;;7901337;28;20223;-50
2022/03/20 09:35:06;;;;;;;9.95;5.95;;;19.90;61.50;;;;;;7901554;28;20244;-51
2022/03/20 09:38:52;;;;;;;18.50;5.72;;;19.90;61.40;;;;;;7900938;28;20265;-55
2022/03/20 09:42:39;;;;;;;11.30;5.75;;;19.90;61.50;;;;;;7900954;28;20310;-52
2022/03/20 09:46:26;;;;;;;14.45;5.43;;;19.90;61.60;;;;;;7901208;28;20227;-55
2022/03/20 09:50:13;;;;;;;16.67;5.68;;;19.90;62.50;;;;;;7901027;28;20195;-50
2022/03/20 09:53:59;;;;;;;9.73;5.45;;;19.90;61.60;;;;;;7906296;28;20196;-50
2022/03/20 09:57:44;;;;;;;11.30;5.03;;;19.90;61.70;;;;;;7913649;28;20212;-52
2022/03/20 10:01:30;;;;;;;13.45;5.47;;;19.90;61.80;;;;;;7913353;28;20168;-50
2022/03/20 10:05:23;;;;;;;12.65;5.18;;;19.90;61.60;;;;;;7914477;28;20271;-51
2022/03/20 10:09:13;;;;;;;16.67;6.10;;;19.90;61.60;;;;;;7913526;28;20755;-51
2022/03/20 10:13:00;;;;;;;10.95;5.13;;;19.90;61.60;;;;;;7914592;28;20253;-52
2022/03/20 10:16:48;;;;;;;10.10;5.05;;;19.90;61.70;;;;;;7923837;28;20225;-51
2022/03/20 10:20:59;;;;;;;9.23;5.00;;;19.90;61.80;;;;;;7914253;28;20180;-49
2022/03/20 10:24:51;;;;;;;13.15;5.50;;;20.00;61.70;;;;;;7907323;28;20204;-49
2022/03/20 10:28:37;;;;;;;11.45;4.97;;;20.00;61.70;;;;;;7914565;28;20195;-49
2022/03/20 10:32:24;;;;;;;7.45;5.00;;;20.00;61.70;;;;;;7907826;28;20204;-48
2022/03/20 10:36:11;;;;;;;9.85;5.35;;;20.00;61.70;;;;;;7913327;28;20181;-51
2022/03/20 10:40:08;;;;;;;13.38;5.20;;;20.00;61.70;;;;;;7899641;28;20177;-49
2022/03/20 10:43:56;;;;;;;7.97;4.97;;;20.00;61.70;;;;;;7903537;28;20227;-49
2022/03/20 10:47:41;;;;;;;9.55;4.35;;;20.00;61.50;;;;;;7914552;28;20801;-48
2022/03/20 10:51:27;;;;;;;9.98;4.45;;;20.00;61.60;;;;;;7920350;28;20552;-50
2022/03/20 10:55:13;;;;;;;8.15;4.97;;;20.00;61.70;;;;;;7910318;28;20191;-51
2022/03/20 10:58:58;;;;;;;9.65;5.05;;;20.00;61.70;;;;;;7905903;28;20200;-50
2022/03/20 11:02:44;;;;;;;8.00;4.75;;;20.00;61.70;;;;;;7920216;28;20199;-49
2022/03/20 11:06:29;;;;;;;10.18;4.97;;;20.00;61.70;;;;;;7912710;28;20248;-49
2022/03/20 11:10:17;;;;;;;6.70;4.22;;;20.00;61.70;;;;;;7918608;28;20173;-52
2022/03/20 11:14:04;;;;;;;6.15;4.40;;;20.10;61.70;;;;;;7913166;28;20565;-48
2022/03/20 11:17:50;;;;;;;8.15;5.18;;;20.00;61.70;;;;;;7917406;28;20665;-51
2022/03/20 11:21:38;;;;;;;6.18;4.65;;;20.10;61.60;;;;;;7921286;28;20225;-49
2022/03/20 11:25:26;;;;;;;7.70;4.40;;;20.10;61.70;;;;;;7927290;28;20291;-49
2022/03/20 11:29:12;;;;;;;9.65;4.70;;;20.10;61.70;;;;;;7931406;28;20176;-50
2022/03/20 11:33:02;;;;;;;8.38;4.20;;;20.10;61.70;;;;;;7917692;28;20188;-51
2022/03/20 11:37:02;;;;;;;7.07;4.28;;;20.10;61.70;;;;;;7919148;28;20206;-50
2022/03/20 11:41:16;;;;;;;7.20;4.43;;;20.10;61.70;;;;;;7918144;28;20258;-50
2022/03/20 11:45:02;;;;;;;6.43;4.57;;;20.10;61.80;;;;;;7919859;28;20505;-52
2022/03/20 11:49:20;;;;;;;8.10;4.15;;;20.10;61.70;;;;;;7920188;28;20263;-49
2022/03/20 11:53:06;;;;;;;6.20;4.10;;;20.10;61.70;;;;;;7906443;28;20602;-50
2022/03/20 11:56:52;;;;;;;6.78;4.32;;;20.10;61.70;;;;;;7920353;28;20184;-49
2022/03/20 12:00:44;;;;;;;6.78;4.28;;;20.10;61.80;;;;;;7918122;28;20177;-51
2022/03/20 12:04:51;;;;;;;8.60;4.55;;;20.10;61.80;;;;;;7914931;28;20615;-51
2022/03/20 12:08:41;;;;;;;12.23;4.43;;;20.20;61.90;;;;;;7918147;28;20215;-49
2022/03/20 12:12:59;;;;;;;9.57;4.22;;;20.10;61.70;;;;;;7914197;27;20220;-50
2022/03/20 12:16:45;;;;;;;9.65;4.45;;;20.10;61.70;;;;;;7927734;28;20210;-52
2022/03/20 12:20:52;;;;;;;13.02;5.10;;;20.10;61.60;;;;;;7919263;28;20164;-49
2022/03/20 12:24:37;;;;;;;13.25;5.55;;;20.10;61.70;;;;;;7935017;28;20199;-48
2022/03/20 12:28:30;;;;;;;27.35;13.27;;;20.10;61.40;;;;;;7920170;28;20205;-49
2022/03/20 12:32:18;;;;;;;23.90;12.63;;;20.10;61.10;;;;;;7902674;28;20548;-49
2022/03/20 12:36:23;;;;;;;29.77;12.50;;;20.10;60.90;;;;;;7903403;28;20236;-48
2022/03/20 12:40:10;;;;;;;28.63;12.77;;;20.10;61.00;;;;;;7902178;28;20188;-51
2022/03/20 12:43:58;;;;;;;23.80;11.63;;;20.10;60.80;;;;;;7902215;28;20233;-49
2022/03/20 12:48:19;;;;;;;23.77;10.00;;;20.10;61.00;;;;;;7903047;28;20184;-49
2022/03/20 12:52:06;;;;;;;17.40;9.45;;;20.10;61.00;;;;;;7900816;28;20237;-48
2022/03/20 12:56:00;;;;;;;18.00;8.88;;;20.10;61.00;;;;;;7911556;28;20183;-51
2022/03/20 12:59:46;;;;;;;17.50;8.23;;;20.10;61.10;;;;;;7932387;28;20218;-50
2022/03/20 13:03:32;;;;;;;16.85;7.20;;;20.10;61.10;;;;;;7932704;28;20208;-51
2022/03/20 13:07:24;;;;;;;13.25;6.85;;;20.20;61.10;;;;;;7933072;28;20179;-50
2022/03/20 13:15:28;;;;;;;10.95;5.80;;;20.20;61.20;;;;;;7913503;28;20191;-52
2022/03/20 13:19:28;;;;;;;13.45;5.57;;;20.20;62.30;;;;;;7916730;28;20207;-49
2022/03/20 13:23:19;;;;;;;15.00;5.78;;;20.20;61.40;;;;;;7932450;28;20695;-49
2022/03/20 13:27:08;;;;;;;16.95;5.30;;;20.20;61.60;;;;;;7916500;28;20325;-49
2022/03/20 13:30:56;;;;;;;16.98;5.32;;;20.20;61.80;;;;;;7901395;28;20212;-50
2022/03/20 13:34:46;;;;;;;13.10;5.47;;;20.20;62.00;;;;;;7901112;28;20215;-49
2022/03/20 13:38:53;;;;;;;30.15;6.15;;;20.20;62.20;;;;;;7901274;28;20232;-49
2022/03/20 13:42:42;;;;;;;12.27;5.22;;;20.20;62.10;;;;;;7900212;28;20188;-52
2022/03/20 13:46:31;;;;;;;13.38;5.35;;;20.30;61.90;;;;;;7901805;28;20180;-51
2022/03/20 13:50:18;;;;;;;11.63;4.85;;;20.30;61.80;;;;;;7919539;28;20202;-50
2022/03/20 13:54:14;;;;;;;14.55;4.88;;;20.30;61.60;;;;;;7917608;28;20200;-53
2022/03/20 13:58:00;;;;;;;14.35;4.85;;;20.20;61.60;;;;;;7916659;28;20248;-50
2022/03/20 14:01:54;;;;;;;11.07;4.70;;;20.20;61.80;;;;;;7913342;28;20207;-50
2022/03/20 14:05:50;;;;;;;12.43;4.75;;;20.30;61.80;;;;;;7918127;28;20676;-50
2022/03/20 14:09:37;;;;;;;12.73;4.40;;;20.20;61.70;;;;;;7902753;28;20546;-49
2022/03/20 14:13:27;;;;;;;10.88;4.65;;;20.20;61.60;;;;;;7900625;28;20284;-51
2022/03/20 14:17:13;;;;;;;8.77;4.30;;;20.20;61.70;;;;;;7910685;28;20199;-48
2022/03/20 14:21:14;;;;;;;11.18;4.50;;;20.30;61.60;;;;;;7913616;28;20173;-49
2022/03/20 14:25:00;;;;;;;7.70;4.20;;;20.20;61.70;;;;;;7914265;28;20196;-53
2022/03/20 14:28:45;;;;;;;13.65;4.32;;;20.20;61.70;;;;;;7916744;28;20191;-49
2022/03/20 14:40:47;;;;;;;9.93;4.38;;;20.20;61.70;;;;;;7900591;28;20181;-49
2022/03/20 14:44:34;;;;;;;9.35;3.78;;;20.20;61.70;;;;;;7900505;28;20218;-49
2022/03/20 14:48:20;;;;;;;8.93;4.20;;;20.20;61.70;;;;;;7900276;28;20191;-48
2022/03/20 14:52:06;;;;;;;10.70;4.40;;;20.20;61.70;;;;;;7900945;28;20195;-49
2022/03/20 14:55:52;;;;;;;10.63;4.22;;;20.20;61.90;;;;;;7920207;28;20193;-49
2022/03/20 14:59:39;;;;;;;18.67;4.70;;;20.20;61.70;;;;;;7922079;28;20207;-49
2022/03/20 15:03:25;;;;;;;11.98;3.80;;;20.20;61.70;;;;;;7919763;28;20325;-51
2022/03/20 15:07:11;;;;;;;7.95;3.95;;;20.20;61.70;;;;;;7921608;28;20168;-49
2022/03/20 15:15:03;;;;;;;9.60;4.38;;;20.10;61.70;;;;;;7905565;28;20219;-48
2022/03/20 15:18:50;;;;;;;9.80;4.18;;;20.10;61.70;;;;;;7915562;28;20211;-50
2022/03/20 15:22:35;;;;;;;5.47;3.60;;;20.10;61.70;;;;;;7915960;28;20233;-52
2022/03/20 15:26:21;;;;;;;8.32;3.72;;;20.10;61.70;;;;;;7920224;28;20171;-51
2022/03/20 15:30:08;;;;;;;6.18;3.75;;;20.10;61.70;;;;;;7919797;28;20169;-48
2022/03/20 15:33:53;;;;;;;9.32;3.50;;;20.10;61.70;;;;;;7921214;28;20215;-50
2022/03/20 15:37:39;;;;;;;10.35;3.72;;;20.10;61.80;;;;;;7915782;28;20216;-48
2022/03/20 15:41:26;;;;;;;9.38;4.15;;;20.10;61.80;;;;;;7933003;28;20229;-49
2022/03/20 15:45:12;;;;;;;7.72;3.50;;;20.00;61.70;;;;;;7936182;28;20198;-51
2022/03/20 15:48:57;;;;;;;9.98;3.72;;;20.00;61.70;;;;;;7936045;28;20188;-49
2022/03/20 15:52:43;;;;;;;4.25;3.28;;;20.00;61.70;;;;;;7936186;28;20331;-48
2022/03/20 15:56:29;;;;;;;4.53;3.35;;;20.00;61.90;;;;;;7936090;28;20206;-51
2022/03/20 16:00:14;;;;;;;5.18;3.05;;;19.90;61.70;;;;;;7935947;28;20180;-50
2022/03/20 16:04:00;;;;;;;5.43;3.35;;;19.90;61.80;;;;;;7934683;28;20192;-51
2022/03/20 16:07:46;;;;;;;7.15;3.20;;;19.90;61.80;;;;;;7925812;28;20195;-48
2022/03/20 16:11:34;;;;;;;5.70;3.05;;;19.90;61.70;;;;;;7919699;28;20176;-48
2022/03/20 16:15:19;;;;;;;7.15;3.35;;;19.90;61.80;;;;;;7913106;28;20854;-52
2022/03/20 16:19:04;;;;;;;8.02;3.58;;;19.90;61.80;;;;;;7919256;28;20679;-50
2022/03/20 16:31:03;;;;;;;4.85;3.40;;;19.80;61.80;;;;;;7908734;28;20173;-54
2022/03/20 16:34:49;;;;;;;11.40;4.20;;;19.80;61.80;;;;;;7920005;28;20280;-52
2022/03/20 16:38:34;;;;;;;15.38;4.50;;;19.80;62.10;;;;;;7903011;28;20280;-52
2022/03/20 16:42:22;;;;;;;15.95;5.10;;;19.80;62.30;;;;;;7918453;28;20223;-51
2022/03/20 16:46:08;;;;;;;19.83;5.13;;;19.80;62.30;;;;;;7934431;28;20547;-52
2022/03/20 16:49:53;;;;;;;16.52;4.90;;;19.80;62.20;;;;;;7934535;28;20187;-51
2022/03/20 16:53:39;;;;;;;13.18;3.92;;;19.80;62.10;;;;;;7934482;28;20290;-52
2022/03/20 16:57:24;;;;;;;18.70;4.32;;;19.80;62.20;;;;;;7934125;28;20212;-52
2022/03/20 17:01:12;;;;;;;16.23;5.07;;;19.80;62.30;;;;;;7933864;28;20178;-52
2022/03/20 17:04:57;;;;;;;11.07;4.20;;;19.80;62.10;;;;;;7933863;28;20796;-52
2022/03/20 17:08:43;;;;;;;12.57;4.40;;;19.80;62.10;;;;;;7933848;28;20203;-52
2022/03/20 17:12:28;;;;;;;13.43;4.13;;;19.80;62.10;;;;;;7933534;28;20192;-52
2022/03/20 17:16:14;;;;;;;10.70;3.70;;;19.70;62.00;;;;;;7933481;28;20207;-49
2022/03/20 17:20:00;;;;;;;6.72;3.97;;;19.70;62.00;;;;;;7933227;28;20552;-51
2022/03/20 17:23:46;;;;;;;16.77;4.75;;;19.70;62.00;;;;;;7918597;28;20193;-50
2022/03/20 17:27:33;;;;;;;10.90;3.97;;;19.70;62.30;;;;;;7908664;28;20263;-54
2022/03/20 17:31:20;;;;;;;19.50;4.65;;;19.70;62.10;;;;;;7903076;28;20181;-52
2022/03/20 17:35:06;;;;;;;12.52;4.28;;;19.70;62.10;;;;;;7900986;28;20208;-52
2022/03/20 17:38:52;;;;;;;11.27;4.25;;;19.70;62.10;;;;;;7900916;28;20201;-54
2022/03/20 17:42:38;;;;;;;14.50;4.50;;;19.70;61.80;;;;;;7900586;28;20199;-50
2022/03/20 17:46:23;;;;;;;13.77;4.20;;;19.70;61.50;;;;;;7900458;28;20181;-54
2022/03/20 17:50:09;;;;;;;10.05;3.85;;;19.70;61.50;;;;;;7900029;28;20245;-51
2022/03/20 17:53:56;;;;;;;15.05;4.10;;;19.70;61.30;;;;;;7900629;28;20200;-49
2022/03/20 17:57:42;;;;;;;19.45;4.47;;;19.70;61.20;;;;;;7900576;28;20313;-51
2022/03/20 18:01:28;;;;;;;11.55;3.58;;;19.70;61.20;;;;;;7900090;28;20642;-50
2022/03/20 18:09:17;;;;;;;28.20;4.70;;;19.70;62.40;;;;;;7900858;28;20811;-52
2022/03/20 18:13:04;;;;;;;27.45;4.20;;;19.70;62.10;;;;;;7901029;28;20758;-52
2022/03/20 18:16:49;;;;;;;22.20;4.20;;;19.80;62.30;;;;;;7930738;28;20199;-50
2022/03/20 18:20:37;;;;;;;18.67;4.90;;;19.80;63.00;;;;;;7932071;28;20630;-51
2022/03/20 18:24:22;;;;;;;31.17;4.38;;;19.90;63.30;;;;;;7927682;28;20192;-51
2022/03/20 18:28:08;;;;;;;22.85;4.20;;;20.00;63.70;;;;;;7903399;28;20194;-50
2022/03/20 18:31:54;;;;;;;16.80;3.92;;;20.00;63.70;;;;;;7906680;28;20181;-51
2022/03/20 18:35:41;;;;;;;11.73;3.70;;;20.10;63.90;;;;;;7906845;28;20200;-51
2022/03/20 18:39:27;;;;;;;20.08;3.60;;;20.10;63.80;;;;;;7906337;28;20212;-50
2022/03/20 18:43:12;;;;;;;12.68;3.53;;;20.20;64.00;;;;;;7905857;28;20203;-51
2022/03/20 18:46:58;;;;;;;12.38;3.50;;;20.20;64.00;;;;;;7906105;28;20658;-51
2022/03/20 18:50:43;;;;;;;15.70;3.55;;;20.30;64.00;;;;;;7906039;28;20642;-50
2022/03/20 18:54:30;;;;;;;15.52;3.75;;;20.30;64.10;;;;;;7906149;28;20200;-51
2022/03/20 18:58:17;;;;;;;12.18;3.55;;;20.30;64.10;;;;;;7906340;28;20208;-51
2022/03/20 19:02:03;;;;;;;14.48;3.65;;;20.30;64.30;;;;;;7905312;28;20160;-50
2022/03/20 19:05:48;;;;;;;18.83;4.30;;;20.30;64.20;;;;;;7905484;28;20187;-52
2022/03/20 19:09:35;;;;;;;8.25;4.15;;;20.30;64.20;;;;;;7905503;28;20589;-49
2022/03/20 19:13:22;;;;;;;24.30;5.20;;;20.30;62.40;;;;;;7905804;28;20201;-50
2022/03/20 19:17:08;;;;;;;17.77;5.25;;;20.20;62.50;;;;;;7905552;28;20202;-50
2022/03/20 19:20:54;;;;;;;17.90;4.72;;;20.10;61.60;;;;;;7905168;28;20198;-49
2022/03/20 19:24:40;;;;;;;14.43;5.00;;;20.00;63.10;;;;;;7904799;28;20192;-51
2022/03/20 19:28:26;;;;;;;13.60;4.32;;;20.00;62.40;;;;;;7905256;28;20560;-52
2022/03/20 19:32:12;;;;;;;18.33;3.97;;;20.00;63.60;;;;;;7904899;28;20196;-51
2022/03/20 19:40:02;;;;;;;14.07;5.55;;;20.00;63.60;;;;;;7903793;28;20184;-50
2022/03/20 19:43:48;;;;;;;17.27;5.63;;;20.00;62.70;;;;;;7934782;28;20188;-51
2022/03/20 19:47:34;;;;;;;13.48;5.80;;;19.90;63.50;;;;;;7907521;28;20237;-52
2022/03/20 19:51:19;;;;;;;18.38;5.10;;;19.90;62.70;;;;;;7904908;28;20240;-51
2022/03/20 19:55:06;;;;;;;18.45;5.45;;;19.90;63.10;;;;;;7904546;28;20201;-50
2022/03/20 19:58:53;;;;;;;12.43;5.00;;;19.90;63.30;;;;;;7904634;28;20329;-50
2022/03/20 20:02:39;;;;;;;18.77;5.35;;;19.90;63.60;;;;;;7903546;28;20187;-50
2022/03/20 20:06:24;;;;;;;12.27;5.20;;;19.90;63.80;;;;;;7903894;28;20177;-51
2022/03/20 20:10:11;;;;;;;14.65;4.97;;;19.90;63.60;;;;;;7904080;28;20187;-50
2022/03/20 20:18:00;;;;;;;9.20;5.00;;;19.90;64.40;;;;;;7903903;28;20737;-52
2022/03/20 20:21:46;;;;;;;14.05;5.65;;;19.90;64.40;;;;;;7902822;28;20606;-52
2022/03/20 20:25:32;;;;;;;13.82;5.40;;;19.90;63.70;;;;;;7902809;28;20538;-50
2022/03/20 20:29:17;;;;;;;10.85;5.05;;;19.80;64.10;;;;;;7903260;28;20180;-50
2022/03/20 20:33:03;;;;;;;7.00;4.45;;;19.80;64.10;;;;;;7903496;28;20208;-51
2022/03/20 20:36:49;;;;;;;9.27;4.95;;;19.80;64.00;;;;;;7903169;28;20215;-52